createdAt,value
2018-12-07T00:01:11.650Z,99998.52
2018-12-07T00:03:40.833Z,99989.62
2018-12-07T00:06:10.242Z,99980.05
2018-12-07T00:08:39.322Z,99968.16
2018-12-07T00:11:08.417Z,99969.41
2018-12-07T00:13:37.934Z,99960.05
2018-12-07T00:16:07.188Z,99842.35
2018-12-07T00:18:36.226Z,99947.70
2018-12-07T00:21:05.634Z,99941.99
2018-12-07T00:23:34.721Z,99938.17
2018-12-07T00:26:03.810Z,99932.25
2018-12-07T00:28:33.630Z,99927.02
2018-12-07T00:31:02.648Z,99925.16
2018-12-07T00:33:31.703Z,99915.41
2018-12-07T00:36:01.239Z,99913.56
2018-12-07T00:38:30.308Z,99910.51
2018-12-07T00:40:59.394Z,99903.57
2018-12-07T00:43:28.810Z,99872.19
2018-12-07T00:46:04.501Z,99897.80
2018-12-07T00:48:33.588Z,99885.66
2018-12-07T00:51:02.654Z,99880.58
2018-12-07T00:53:31.757Z,99879.52
2018-12-07T00:56:01.256Z,99870.84
2018-12-07T00:58:30.339Z,99673.01
2018-12-07T01:00:59.421Z,99854.73
2018-12-07T01:03:28.854Z,99845.00
2018-12-07T01:05:57.934Z,99846.63
2018-12-07T01:08:27.030Z,99835.27
2018-12-07T01:10:56.544Z,99839.29
2018-12-07T01:13:25.750Z,99831.67
2018-12-07T01:15:54.819Z,99831.96
2018-12-07T01:18:24.365Z,99830.11
2018-12-07T01:20:53.429Z,99820.69
2018-12-07T01:23:22.633Z,99819.45
2018-12-07T01:25:52.133Z,99816.02
2018-12-07T01:28:21.282Z,99810.00
2018-12-07T01:30:50.337Z,99802.69
2018-12-07T01:33:19.732Z,99805.66
2018-12-07T01:35:48.919Z,99777.33
2018-12-07T01:38:18.024Z,99801.61
2018-12-07T01:40:47.427Z,99793.38
2018-12-07T01:43:16.517Z,99789.88
2018-12-07T01:45:46.194Z,99788.81
2018-12-07T01:48:15.763Z,99784.92
2018-12-07T01:50:44.821Z,99776.91
2018-12-07T01:53:13.935Z,99774.56
2018-12-07T01:55:43.343Z,99766.47
2018-12-07T01:58:12.370Z,99764.36
2018-12-07T02:00:41.496Z,99763.50
2018-12-07T02:03:11.026Z,99749.02
2018-12-07T02:05:40.105Z,99745.74
2018-12-07T02:08:09.212Z,99739.28
2018-12-07T02:10:39.336Z,99736.00
2018-12-07T02:13:08.438Z,99730.78
2018-12-07T02:15:37.514Z,99727.77
2018-12-07T02:18:07.030Z,99708.98
2018-12-07T02:20:36.113Z,99711.16
2018-12-07T02:23:05.243Z,99706.26
2018-12-07T02:25:34.643Z,99700.72
2018-12-07T02:28:03.655Z,99689.48
2018-12-07T02:30:32.962Z,99689.00
2018-12-07T02:33:03.353Z,99689.44
2018-12-07T02:35:32.495Z,99671.91
2018-12-07T02:38:01.618Z,99667.44
2018-12-07T02:40:31.307Z,99664.70
2018-12-07T02:43:00.645Z,99654.05
2018-12-07T02:45:29.738Z,99650.91
2018-12-07T02:47:59.446Z,99648.83
2018-12-07T02:50:28.470Z,99644.25
2018-12-07T02:52:57.525Z,99636.30
2018-12-07T02:55:27.355Z,99639.80
2018-12-07T02:57:56.373Z,99628.48
2018-12-07T03:00:25.422Z,99620.61
2018-12-07T03:02:55.963Z,99616.18
2018-12-07T03:05:24.993Z,99610.30
2018-12-07T03:07:54.110Z,99592.44
2018-12-07T03:10:23.563Z,99589.11
2018-12-07T03:12:52.646Z,99587.73
2018-12-07T03:15:21.747Z,99582.95
2018-12-07T03:17:51.258Z,99577.14
2018-12-07T03:20:20.334Z,99567.34
2018-12-07T03:22:49.467Z,99564.10
2018-12-07T03:25:18.655Z,99570.80
2018-12-07T03:27:47.731Z,99555.92
2018-12-07T03:30:16.737Z,99556.69
2018-12-07T03:32:46.136Z,99564.77
2018-12-07T03:35:15.532Z,99556.73
2018-12-07T03:37:44.639Z,99554.73
2018-12-07T03:40:14.029Z,99554.34
2018-12-07T03:42:43.124Z,99548.14
2018-12-07T03:45:12.126Z,99549.67
2018-12-07T03:47:41.520Z,99545.14
2018-12-07T03:50:10.538Z,99539.75
2018-12-07T03:52:39.535Z,99540.81
2018-12-07T03:55:08.908Z,99544.70
2018-12-07T03:57:37.993Z,99540.90
2018-12-07T04:00:08.869Z,99539.39
2018-12-07T04:02:37.933Z,99536.52
2018-12-07T04:05:07.094Z,99539.55
2018-12-07T04:07:36.873Z,99536.04
2018-12-07T04:10:06.180Z,99524.16
2018-12-07T04:12:35.234Z,99517.39
2018-12-07T04:15:05.403Z,99522.42
2018-12-07T04:17:34.859Z,99525.75
2018-12-07T04:20:04.169Z,99518.36
2018-12-07T04:22:33.566Z,99516.47
2018-12-07T04:25:02.715Z,99512.87
2018-12-07T04:27:32.464Z,99513.64
2018-12-07T04:30:12.900Z,99501.03
2018-12-07T04:32:42.390Z,99486.33
2018-12-07T04:35:13.135Z,99487.30
2018-12-07T04:37:42.299Z,99494.52
2018-12-07T04:40:11.347Z,99500.00
2018-12-07T04:42:40.870Z,99487.86
2018-12-07T04:45:10.775Z,99478.98
2018-12-07T04:47:39.830Z,99475.02
2018-12-07T04:50:09.793Z,99474.55
2018-12-07T04:52:38.916Z,99474.55
2018-12-07T04:55:08.516Z,99470.95
2018-12-07T04:57:38.309Z,99454.63
2018-12-07T05:00:08.936Z,99452.07
2018-12-07T05:02:38.080Z,99448.09
2018-12-07T05:05:08.142Z,99442.78
2018-12-07T05:07:37.361Z,99439.84
2018-12-07T05:10:07.376Z,99429.51
2018-12-07T05:12:36.862Z,99430.26
2018-12-07T05:15:07.632Z,99440.30
2018-12-07T05:17:36.685Z,99435.38
2018-12-07T05:20:07.226Z,99434.05
2018-12-07T05:22:36.243Z,99431.40
2018-12-07T05:25:05.711Z,99432.16
2018-12-07T05:27:34.955Z,99426.84
2018-12-07T05:30:04.354Z,99434.48
2018-12-07T05:32:34.866Z,99441.76
2018-12-07T05:35:04.286Z,99452.75
2018-12-07T05:37:34.566Z,99455.69
2018-12-07T05:40:04.604Z,99453.89
2018-12-07T05:42:33.683Z,99455.22
2018-12-07T05:45:02.918Z,99447.04
2018-12-07T05:47:32.138Z,99451.48
2018-12-07T05:50:01.343Z,99448.19
2018-12-07T05:52:30.416Z,99454.63
2018-12-07T05:54:59.595Z,99459.66
2018-12-07T05:57:29.649Z,99465.20
2018-12-07T05:59:58.814Z,99460.31
2018-12-07T06:02:28.275Z,99465.51
2018-12-07T06:04:57.369Z,99467.30
2018-12-07T06:07:26.407Z,99462.00
2018-12-07T06:09:56.203Z,99453.20
2018-12-07T06:12:25.300Z,99451.59
2018-12-07T06:14:55.051Z,99440.05
2018-12-07T06:17:24.811Z,99432.23
2018-12-07T06:19:54.511Z,99433.48
2018-12-07T06:22:23.609Z,99439.66
2018-12-07T06:24:53.234Z,99436.27
2018-12-07T06:27:22.318Z,99442.70
2018-12-07T06:29:51.669Z,99438.91
2018-12-07T06:32:21.029Z,99446.50
2018-12-07T06:34:50.106Z,99445.69
2018-12-07T06:37:19.117Z,99440.01
2018-12-07T06:39:48.204Z,99429.96
2018-12-07T06:42:17.287Z,99433.05
2018-12-07T06:44:46.402Z,99436.75
2018-12-07T06:47:15.796Z,99434.70
2018-12-07T06:49:44.885Z,99431.44
2018-12-07T06:52:13.972Z,99417.78
2018-12-07T06:54:43.218Z,99424.33
2018-12-07T06:57:12.274Z,99433.52
2018-12-07T06:59:41.353Z,99428.77
2018-12-07T07:02:10.510Z,99425.82
2018-12-07T07:04:39.553Z,99440.79
2018-12-07T07:07:08.684Z,99444.77
2018-12-07T07:09:38.069Z,99433.69
2018-12-07T07:12:07.326Z,99420.69
2018-12-07T07:14:36.344Z,99408.70
2018-12-07T07:17:05.482Z,99395.64
2018-12-07T07:19:34.528Z,99395.17
2018-12-07T07:22:03.737Z,99397.58
2018-12-07T07:24:33.350Z,99401.28
2018-12-07T07:27:02.458Z,99400.63
2018-12-07T07:29:31.534Z,99397.30
2018-12-07T07:32:00.574Z,99401.48
2018-12-07T07:34:29.579Z,99404.42
2018-12-07T07:36:58.617Z,99412.76
2018-12-07T07:39:27.750Z,99406.11
2018-12-07T07:41:57.641Z,99403.22
2018-12-07T07:44:26.719Z,99398.86
2018-12-07T07:46:56.242Z,99407.76
2018-12-07T07:49:25.287Z,99418.09
2018-12-07T07:51:54.302Z,99425.52
2018-12-07T07:54:23.826Z,99421.54
2018-12-07T07:56:52.941Z,99418.19
2018-12-07T07:59:22.004Z,99426.28
2018-12-07T08:01:51.857Z,99433.11
2018-12-07T08:04:20.870Z,99432.18
2018-12-07T08:06:49.906Z,99442.42
2018-12-07T08:09:19.039Z,99439.49
2018-12-07T08:11:48.097Z,99451.99
2018-12-07T08:14:17.137Z,99456.97
2018-12-07T08:16:46.210Z,99452.33
2018-12-07T08:19:15.211Z,99447.02
2018-12-07T08:21:44.270Z,99445.98
2018-12-07T08:24:13.405Z,99446.92
2018-12-07T08:26:42.409Z,99431.28
2018-12-07T08:29:11.606Z,99430.44
2018-12-07T08:31:40.642Z,99431.48
2018-12-07T08:34:09.736Z,99440.97
2018-12-07T08:36:38.841Z,99444.58
2018-12-07T08:39:10.554Z,99456.14
2018-12-07T08:41:39.579Z,99456.75
2018-12-07T08:44:09.042Z,99448.59
2018-12-07T08:46:38.509Z,99446.60
2018-12-07T08:49:07.592Z,99442.15
2018-12-07T08:51:36.715Z,99440.44
2018-12-07T08:54:05.794Z,99440.44
2018-12-07T08:56:34.902Z,99439.97
2018-12-07T08:59:05.306Z,99454.19
2018-12-07T09:01:35.125Z,99455.61
2018-12-07T09:04:04.434Z,99446.41
2018-12-07T09:06:33.519Z,99452.83
2018-12-07T09:09:04.152Z,99443.05
2018-12-07T09:11:34.146Z,99432.28
2018-12-07T09:14:03.150Z,99426.08
2018-12-07T09:16:32.386Z,99433.01
2018-12-07T09:19:01.450Z,99438.31
2018-12-07T09:21:30.557Z,99440.69
2018-12-07T09:23:59.660Z,99442.59
2018-12-07T09:26:28.839Z,99446.09
2018-12-07T09:28:58.121Z,99451.59
2018-12-07T09:31:27.723Z,99450.48
2018-12-07T09:33:56.829Z,99447.08
2018-12-07T09:36:25.843Z,99442.53
2018-12-07T09:38:55.001Z,99434.09
2018-12-07T09:41:24.129Z,99427.36
2018-12-07T09:43:53.310Z,99438.16
2018-12-07T09:46:22.733Z,99441.58
2018-12-07T09:48:51.759Z,99431.34
2018-12-07T09:51:20.826Z,99422.05
2018-12-07T09:53:50.144Z,99416.55
2018-12-07T09:56:19.230Z,99406.20
2018-12-07T09:58:48.298Z,99410.38
2018-12-07T10:01:19.019Z,99416.94
2018-12-07T10:03:48.241Z,99402.89
2018-12-07T10:06:17.326Z,99396.53
2018-12-07T10:08:46.567Z,99389.13
2018-12-07T10:11:15.570Z,99388.05
2018-12-07T10:13:45.042Z,99392.97
2018-12-07T10:16:14.117Z,99403.03
2018-12-07T10:18:43.210Z,99392.78
2018-12-07T10:21:12.303Z,99387.87
2018-12-07T10:23:41.423Z,99388.89
2018-12-07T10:26:11.118Z,99384.41
2018-12-07T10:28:40.131Z,99383.63
2018-12-07T10:31:09.219Z,99389.12
2018-12-07T10:33:38.290Z,99391.95
2018-12-07T10:36:07.341Z,99394.98
2018-12-07T10:38:36.395Z,99403.27
2018-12-07T10:41:05.522Z,99406.67
2018-12-07T10:43:34.568Z,99396.16
2018-12-07T10:46:03.727Z,99382.73
2018-12-07T10:48:32.771Z,99373.54
2018-12-07T10:51:07.923Z,99377.81
2018-12-07T10:53:33.319Z,99358.43
2018-12-07T10:56:02.402Z,99353.31
2018-12-07T10:58:31.486Z,99357.02
2018-12-07T11:01:05.938Z,99348.30
2018-12-07T11:03:40.230Z,99346.90
2018-12-07T11:06:14.886Z,99352.03
2018-12-07T11:08:49.874Z,99348.42
2018-12-07T11:11:24.640Z,99338.85
2018-12-07T11:13:58.885Z,99332.50
2018-12-07T11:16:33.291Z,99321.34
2018-12-07T11:19:07.567Z,99323.23
2018-12-07T11:21:42.081Z,99326.38
2018-12-07T11:24:16.643Z,99322.75
2018-12-07T11:27:49.097Z,99307.88
2018-12-07T11:30:23.498Z,99316.30
2018-12-07T11:32:58.153Z,99321.50
2018-12-07T11:35:30.637Z,99312.58
2018-12-07T11:37:59.966Z,99307.19
2018-12-07T11:40:28.991Z,99300.02
2018-12-07T11:43:00.374Z,99296.69
2018-12-07T11:45:29.447Z,99298.59
2018-12-07T11:47:59.057Z,99297.70
2018-12-07T11:50:28.282Z,99290.02
2018-12-07T11:52:57.380Z,99295.88
2018-12-07T11:55:26.448Z,99304.91
2018-12-07T11:57:55.565Z,99301.14
2018-12-07T12:00:24.650Z,99305.36
2018-12-07T12:02:53.735Z,99322.19
2018-12-07T12:05:22.858Z,99326.44
2018-12-07T12:07:51.913Z,99330.97
2018-12-07T12:10:21.150Z,99327.16
2018-12-07T12:12:50.245Z,99326.95
2018-12-07T12:15:19.317Z,99327.80
2018-12-07T12:17:48.410Z,99327.16
2018-12-07T12:20:17.821Z,99340.23
2018-12-07T12:22:46.953Z,99336.79
2018-12-07T12:25:16.019Z,99344.56
2018-12-07T12:27:45.106Z,99343.44
2018-12-07T12:30:14.194Z,99333.84
2018-12-07T12:32:43.293Z,99333.67
2018-12-07T12:35:12.710Z,99335.86
2018-12-07T12:37:41.889Z,99327.74
2018-12-07T12:40:11.122Z,99327.20
2018-12-07T12:42:40.117Z,99330.91
2018-12-07T12:45:09.422Z,99331.86
2018-12-07T12:47:38.478Z,99320.69
2018-12-07T12:50:11.974Z,99327.33
2018-12-07T12:52:41.072Z,99323.14
2018-12-07T12:55:10.169Z,99321.23
2018-12-07T12:57:39.283Z,99324.37
2018-12-07T13:00:08.277Z,99323.89
2018-12-07T13:02:37.429Z,99325.05
2018-12-07T13:05:06.977Z,99326.00
2018-12-07T13:07:36.253Z,99317.85
2018-12-07T13:10:05.461Z,99316.35
2018-12-07T13:12:34.581Z,99314.77
2018-12-07T13:15:04.589Z,99312.22
2018-12-07T13:17:33.745Z,99312.59
2018-12-07T13:20:02.901Z,99320.53
2018-12-07T13:22:32.028Z,99318.73
2018-12-07T13:25:01.597Z,99322.61
2018-12-07T13:27:30.798Z,99324.02
2018-12-07T13:30:00.350Z,99333.77
2018-12-07T13:32:29.466Z,99335.30
2018-12-07T13:34:58.880Z,99343.34
2018-12-07T13:37:27.895Z,99343.63
2018-12-07T13:39:57.040Z,99346.66
2018-12-07T13:42:26.622Z,99351.39
2018-12-07T13:44:55.835Z,99345.02
2018-12-07T13:47:26.115Z,99329.38
2018-12-07T13:50:02.428Z,99331.56
2018-12-07T13:52:32.200Z,99322.70
2018-12-07T13:55:02.471Z,99321.17
2018-12-07T13:57:33.855Z,99329.52
2018-12-07T14:00:05.269Z,99332.72
2018-12-07T14:02:35.896Z,99333.73
2018-12-07T14:05:06.691Z,99332.62
2018-12-07T14:07:35.930Z,99326.34
2018-12-07T14:10:05.923Z,99328.05
2018-12-07T14:12:36.111Z,99318.27
2018-12-07T14:15:05.978Z,99327.40
2018-12-07T14:17:35.137Z,99321.70
2018-12-07T14:20:05.455Z,99324.53
2018-12-07T14:22:34.524Z,99322.14
2018-12-07T14:25:04.634Z,99318.47
2018-12-07T14:27:34.497Z,99313.30
2018-12-07T14:30:04.280Z,99310.98
2018-12-07T14:32:33.567Z,99304.40
2018-12-07T14:35:03.654Z,99298.45
2018-12-07T14:37:33.065Z,99289.00
2018-12-07T14:40:02.465Z,99291.36
2018-12-07T14:42:31.983Z,99298.19
2018-12-07T14:45:02.194Z,99292.20
2018-12-07T14:47:31.768Z,99287.56
2018-12-07T14:50:01.129Z,99276.37
2018-12-07T14:52:30.293Z,99265.80
2018-12-07T14:54:59.501Z,99259.92
2018-12-07T14:57:28.600Z,99248.38
2018-12-07T14:59:57.707Z,99248.26
2018-12-07T15:02:26.931Z,99257.09
2018-12-07T15:04:56.881Z,99235.00
2018-12-07T15:07:26.470Z,99226.00
2018-12-07T15:09:56.649Z,99227.41
2018-12-07T15:12:26.995Z,99221.35
2018-12-07T15:14:56.125Z,99223.63
2018-12-07T15:17:25.776Z,99216.98
2018-12-07T15:19:55.382Z,99226.27
2018-12-07T15:22:24.745Z,99225.98
2018-12-07T15:24:55.479Z,99221.45
2018-12-07T15:27:25.295Z,99210.36
2018-12-07T15:29:54.486Z,99207.50
2018-12-07T15:32:23.871Z,99206.72
2018-12-07T15:34:53.045Z,99207.58
2018-12-07T15:37:23.815Z,99204.72
2018-12-07T15:39:53.055Z,99200.16
2018-12-07T15:42:22.219Z,99200.53
2018-12-07T15:44:51.361Z,99193.89
2018-12-07T15:47:20.625Z,99185.28
2018-12-07T15:49:50.035Z,99185.55
2018-12-07T15:52:19.611Z,99182.22
2018-12-07T15:54:48.978Z,99174.16
2018-12-07T15:57:18.180Z,99179.63
2018-12-07T15:59:47.619Z,99178.20
2018-12-07T16:02:16.862Z,99174.97
2018-12-07T16:04:45.960Z,99164.45
2018-12-07T16:07:15.290Z,99158.70
2018-12-07T16:09:44.577Z,99146.92
2018-12-07T16:12:13.672Z,99130.16
2018-12-07T16:14:43.230Z,99132.91
2018-12-07T16:17:12.490Z,99133.25
2018-12-07T16:19:41.976Z,99133.47
2018-12-07T16:22:11.368Z,99112.71
2018-12-07T16:24:41.437Z,99068.20
2018-12-07T16:27:11.146Z,99054.70
2018-12-07T16:29:40.443Z,99071.20
2018-12-07T16:32:09.821Z,99053.30
2018-12-07T16:34:39.233Z,99043.27
2018-12-07T16:37:09.365Z,99057.08
2018-12-07T16:39:38.730Z,99057.38
2018-12-07T16:42:07.865Z,99038.55
2018-12-07T16:44:36.999Z,99032.83
2018-12-07T16:47:06.596Z,99019.61
2018-12-07T16:49:35.956Z,99019.13
2018-12-07T16:52:05.194Z,99029.28
2018-12-07T16:54:34.323Z,99050.67
2018-12-07T16:57:03.370Z,99081.94
2018-12-07T16:59:32.576Z,99093.95
2018-12-07T17:02:01.941Z,99114.56
2018-12-07T17:04:31.166Z,99129.12
2018-12-07T17:07:00.421Z,99146.45
2018-12-07T17:09:30.178Z,99156.05
2018-12-07T17:11:59.521Z,99142.95
2018-12-07T17:14:28.896Z,99141.17
2018-12-07T17:16:58.270Z,99119.50
2018-12-07T17:19:27.584Z,99128.23
2018-12-07T17:21:56.849Z,99131.78
2018-12-07T17:24:26.194Z,99127.88
2018-12-07T17:26:56.019Z,99127.60
2018-12-07T17:29:26.303Z,99121.06
2018-12-07T17:31:55.679Z,99124.95
2018-12-07T17:34:25.038Z,99118.84
2018-12-07T17:36:54.258Z,99110.78
2018-12-07T17:39:23.539Z,99101.49
2018-12-07T17:41:52.742Z,99085.19
2018-12-07T17:44:21.891Z,99077.80
2018-12-07T17:46:51.270Z,99089.88
2018-12-07T17:49:20.496Z,99083.88
2018-12-07T17:51:49.709Z,99085.91
2018-12-07T17:54:19.185Z,99087.22
2018-12-07T17:56:49.415Z,99086.05
2018-12-07T17:59:18.473Z,99095.03
2018-12-07T18:01:47.978Z,99080.16
2018-12-07T18:04:16.997Z,99078.40
2018-12-07T18:06:46.314Z,99065.06
2018-12-07T18:09:15.424Z,99068.67
2018-12-07T18:11:44.872Z,99056.41
2018-12-07T18:14:14.592Z,99030.46
2018-12-07T18:16:43.742Z,99007.63
2018-12-07T18:19:13.113Z,98996.91
2018-12-07T18:21:42.512Z,98983.68
2018-12-07T18:24:11.722Z,98969.94
2018-12-07T18:26:40.830Z,98972.07
2018-12-07T18:29:10.087Z,98972.55
2018-12-07T18:31:39.498Z,98965.39
2018-12-07T18:34:08.673Z,98976.27
2018-12-07T18:36:37.957Z,98978.59
2018-12-07T18:39:08.467Z,98979.91
2018-12-07T18:41:37.760Z,98965.07
2018-12-07T18:44:07.203Z,98972.34
2018-12-07T18:46:36.444Z,98979.33
2018-12-07T18:49:06.072Z,98973.22
2018-12-07T18:51:35.594Z,98972.64
2018-12-07T18:54:04.796Z,98976.30
2018-12-07T18:56:34.162Z,98968.97
2018-12-07T18:59:03.661Z,98958.78
2018-12-07T19:01:32.879Z,98960.48
2018-12-07T19:04:02.232Z,98955.59
2018-12-07T19:06:31.344Z,98940.28
2018-12-07T19:09:00.979Z,98932.75
2018-12-07T19:11:31.904Z,98925.90
2018-12-07T19:14:01.134Z,98913.98
2018-12-07T19:16:30.178Z,98914.35
2018-12-07T19:19:01.749Z,98918.69
2018-12-07T19:21:30.867Z,98907.48
2018-12-07T19:24:01.764Z,98900.30
2018-12-07T19:26:30.954Z,98891.05
2018-12-07T19:29:00.477Z,98881.56
2018-12-07T19:31:29.635Z,98879.19
2018-12-07T19:33:59.022Z,98868.73
2018-12-07T19:36:28.355Z,98862.62
2018-12-07T19:38:58.184Z,98852.13
2018-12-07T19:41:27.347Z,98850.39
2018-12-07T19:43:57.189Z,98848.58
2018-12-07T19:46:26.490Z,98842.16
2018-12-07T19:48:56.181Z,98832.08
2018-12-07T19:51:25.479Z,98829.53
2018-12-07T19:53:55.336Z,98822.95
2018-12-07T19:56:24.864Z,98823.47
2018-12-07T19:58:54.225Z,98816.81
2018-12-07T20:01:23.534Z,98814.05
2018-12-07T20:03:53.116Z,98813.36
2018-12-07T20:06:22.430Z,98798.72
2018-12-07T20:08:51.584Z,98806.02
2018-12-07T20:11:20.736Z,98802.45
2018-12-07T20:13:50.942Z,98800.58
2018-12-07T20:16:20.847Z,98796.56
2018-12-07T20:18:50.102Z,98795.01
2018-12-07T20:21:19.236Z,98795.52
2018-12-07T20:23:49.330Z,98785.64
2018-12-07T20:26:18.334Z,98774.00
2018-12-07T20:28:47.410Z,98768.36
2018-12-07T20:31:16.842Z,98758.30
2018-12-07T20:33:46.183Z,98758.81
2018-12-07T20:36:15.515Z,98746.64
2018-12-07T20:38:44.857Z,98752.69
2018-12-07T20:41:14.030Z,98758.75
2018-12-07T20:43:43.138Z,98757.93
2018-12-07T20:46:13.199Z,98755.17
2018-12-07T20:48:43.531Z,98741.53
2018-12-07T20:51:12.625Z,98735.72
2018-12-07T20:53:41.634Z,98733.80
2018-12-07T20:56:11.526Z,98725.02
2018-12-07T20:58:41.218Z,98712.27
2018-12-07T21:01:10.607Z,98709.56
2018-12-07T21:04:15.202Z,98705.16
2018-12-07T21:11:12.981Z,98697.28
2018-12-07T21:13:59.262Z,98687.53
2018-12-07T21:17:38.673Z,98701.84
2018-12-07T21:20:21.089Z,98706.39
2018-12-07T21:22:50.918Z,98704.45
2018-12-07T21:25:20.249Z,98690.91
2018-12-07T21:27:49.377Z,98695.00
2018-12-07T21:30:39.947Z,98690.81
2018-12-07T21:33:10.023Z,98688.17
2018-12-07T21:36:34.206Z,98688.17
2018-12-07T21:39:05.900Z,98678.73
2018-12-07T21:41:36.077Z,98672.47
2018-12-07T21:44:05.380Z,98668.36
2018-12-07T21:46:35.402Z,98661.34
2018-12-07T21:49:05.057Z,98658.11
2018-12-07T21:51:43.130Z,98652.21
2018-12-07T21:54:12.235Z,98649.55
2018-12-07T21:56:42.701Z,98634.70
2018-12-07T21:59:12.021Z,98640.37
2018-12-07T22:01:41.638Z,98633.24
2018-12-07T22:04:11.116Z,98627.83
2018-12-07T22:06:40.426Z,98622.75
2018-12-07T22:09:10.288Z,98614.19
2018-12-07T22:11:41.711Z,98598.05
2018-12-07T22:14:11.761Z,98595.75
2018-12-07T22:16:40.966Z,98602.77
2018-12-07T22:19:10.315Z,98598.66
2018-12-07T22:21:39.681Z,98597.45
2018-12-07T22:24:08.974Z,98586.70
2018-12-07T22:26:38.490Z,98578.84
2018-12-07T22:29:08.181Z,98577.16
2018-12-07T22:31:37.378Z,98570.39
2018-12-07T22:34:06.733Z,98559.16
2018-12-07T22:36:36.115Z,98556.98
2018-12-07T22:39:08.383Z,98539.59
2018-12-07T22:41:38.070Z,98533.19
2018-12-07T22:44:08.636Z,98522.44
2018-12-07T22:46:38.222Z,98527.90
2018-12-07T22:49:07.598Z,98513.64
2018-12-07T22:51:36.732Z,98501.42
2018-12-07T22:54:06.723Z,98492.70
2018-12-07T22:56:36.966Z,98492.08
2018-12-07T22:59:06.318Z,98479.86
2018-12-07T23:01:35.495Z,98473.33
2018-12-07T23:04:04.510Z,98465.02
2018-12-07T23:06:33.541Z,98462.71
2018-12-07T23:09:02.564Z,98457.86
2018-12-07T23:11:32.869Z,98416.70
2018-12-07T23:14:02.409Z,98447.78
2018-12-07T23:16:31.469Z,98445.61
2018-12-07T23:19:00.532Z,98437.63
2018-12-07T23:21:29.993Z,98431.34
2018-12-07T23:23:59.027Z,98421.88
2018-12-07T23:26:28.176Z,98416.06
2018-12-07T23:28:57.217Z,98409.16
2018-12-07T23:31:26.434Z,98404.32
2018-12-07T23:33:55.450Z,98400.46
2018-12-07T23:36:25.953Z,98391.02
2018-12-07T23:38:55.053Z,98392.58
2018-12-07T23:41:24.145Z,98379.31
2018-12-07T23:43:53.267Z,98388.09
2018-12-07T23:46:22.401Z,98376.48
2018-12-07T23:48:51.521Z,98368.23
2018-12-07T23:51:20.848Z,98357.95
2018-12-07T23:53:49.914Z,98354.84
2018-12-07T23:56:18.954Z,98353.02
2018-12-07T23:58:48.158Z,98351.43
